sensor_id;sensor_type;location;lat;lon;timestamp;P1;durP1;ratioP1;P2;durP2;ratioP2
43891;SDS011;29555;45.350;5.578;2024-03-08T00:01:39;6.50;;;3.50;;
43891;SDS011;29555;45.350;5.578;2024-03-08T00:04:04;6.90;;;4.40;;
43891;SDS011;29555;45.350;5.578;2024-03-08T00:06:31;6.38;;;5.43;;
43891;SDS011;29555;45.350;5.578;2024-03-08T00:08:57;8.40;;;4.53;;
43891;SDS011;29555;45.350;5.578;2024-03-08T00:11:22;7.50;;;5.45;;
43891;SDS011;29555;45.350;5.578;2024-03-08T00:13:50;7.63;;;6.60;;
43891;SDS011;29555;45.350;5.578;2024-03-08T00:16:17;14.68;;;5.25;;
43891;SDS011;29555;45.350;5.578;2024-03-08T00:18:44;9.20;;;4.95;;
43891;SDS011;29555;45.350;5.578;2024-03-08T00:21:10;8.38;;;5.43;;
43891;SDS011;29555;45.350;5.578;2024-03-08T00:23:36;15.70;;;4.38;;
43891;SDS011;29555;45.350;5.578;2024-03-08T00:26:05;4.90;;;3.88;;
43891;SDS011;29555;45.350;5.578;2024-03-08T00:28:31;8.20;;;4.00;;
43891;SDS011;29555;45.350;5.578;2024-03-08T00:30:57;4.63;;;3.78;;
43891;SDS011;29555;45.350;5.578;2024-03-08T00:33:22;6.28;;;4.72;;
43891;SDS011;29555;45.350;5.578;2024-03-08T00:35:47;8.65;;;3.92;;
43891;SDS011;29555;45.350;5.578;2024-03-08T00:38:13;4.68;;;4.18;;
43891;SDS011;29555;45.350;5.578;2024-03-08T00:40:38;4.45;;;3.92;;
43891;SDS011;29555;45.350;5.578;2024-03-08T00:43:05;5.75;;;3.85;;
43891;SDS011;29555;45.350;5.578;2024-03-08T00:45:31;7.60;;;5.10;;
43891;SDS011;29555;45.350;5.578;2024-03-08T00:47:56;6.45;;;4.88;;
43891;SDS011;29555;45.350;5.578;2024-03-08T00:50:22;10.85;;;3.78;;
43891;SDS011;29555;45.350;5.578;2024-03-08T00:52:47;6.40;;;4.43;;
43891;SDS011;29555;45.350;5.578;2024-03-08T00:55:12;5.50;;;4.07;;
43891;SDS011;29555;45.350;5.578;2024-03-08T00:57:38;6.50;;;4.32;;
43891;SDS011;29555;45.350;5.578;2024-03-08T01:00:04;4.82;;;3.80;;
43891;SDS011;29555;45.350;5.578;2024-03-08T01:02:34;6.50;;;3.63;;
43891;SDS011;29555;45.350;5.578;2024-03-08T01:05:00;3.58;;;3.00;;
43891;SDS011;29555;45.350;5.578;2024-03-08T01:07:26;9.38;;;4.47;;
43891;SDS011;29555;45.350;5.578;2024-03-08T01:09:51;7.40;;;4.35;;
43891;SDS011;29555;45.350;5.578;2024-03-08T01:12:17;8.65;;;3.97;;
43891;SDS011;29555;45.350;5.578;2024-03-08T01:14:42;8.32;;;4.30;;
43891;SDS011;29555;45.350;5.578;2024-03-08T01:17:08;8.38;;;4.30;;
43891;SDS011;29555;45.350;5.578;2024-03-08T01:19:34;3.75;;;2.78;;
43891;SDS011;29555;45.350;5.578;2024-03-08T01:22:00;5.03;;;3.50;;
43891;SDS011;29555;45.350;5.578;2024-03-08T01:24:25;9.77;;;4.00;;
43891;SDS011;29555;45.350;5.578;2024-03-08T01:26:51;6.32;;;3.72;;
43891;SDS011;29555;45.350;5.578;2024-03-08T01:29:16;6.43;;;3.90;;
43891;SDS011;29555;45.350;5.578;2024-03-08T01:31:42;11.13;;;4.15;;
43891;SDS011;29555;45.350;5.578;2024-03-08T01:34:07;7.90;;;3.65;;
43891;SDS011;29555;45.350;5.578;2024-03-08T01:36:32;4.03;;;3.28;;
43891;SDS011;29555;45.350;5.578;2024-03-08T01:38:58;3.83;;;2.55;;
43891;SDS011;29555;45.350;5.578;2024-03-08T01:41:23;3.30;;;2.65;;
43891;SDS011;29555;45.350;5.578;2024-03-08T01:43:49;8.75;;;3.88;;
43891;SDS011;29555;45.350;5.578;2024-03-08T01:46:17;7.75;;;4.15;;
43891;SDS011;29555;45.350;5.578;2024-03-08T01:48:44;5.32;;;3.78;;
43891;SDS011;29555;45.350;5.578;2024-03-08T01:51:10;10.32;;;3.67;;
43891;SDS011;29555;45.350;5.578;2024-03-08T01:53:37;5.03;;;3.58;;
43891;SDS011;29555;45.350;5.578;2024-03-08T01:56:02;6.32;;;4.47;;
43891;SDS011;29555;45.350;5.578;2024-03-08T01:58:28;6.90;;;4.40;;
43891;SDS011;29555;45.350;5.578;2024-03-08T02:00:54;7.97;;;4.78;;
43891;SDS011;29555;45.350;5.578;2024-03-08T02:03:23;8.30;;;5.47;;
43891;SDS011;29555;45.350;5.578;2024-03-08T02:05:48;8.82;;;5.18;;
43891;SDS011;29555;45.350;5.578;2024-03-08T02:08:14;5.35;;;4.50;;
43891;SDS011;29555;45.350;5.578;2024-03-08T02:10:41;7.13;;;4.80;;
43891;SDS011;29555;45.350;5.578;2024-03-08T02:13:07;7.70;;;4.38;;
43891;SDS011;29555;45.350;5.578;2024-03-08T02:15:52;6.18;;;3.30;;
43891;SDS011;29555;45.350;5.578;2024-03-08T02:18:18;7.75;;;5.07;;
43891;SDS011;29555;45.350;5.578;2024-03-08T02:20:46;6.97;;;4.55;;
43891;SDS011;29555;45.350;5.578;2024-03-08T02:23:20;4.60;;;3.60;;
43891;SDS011;29555;45.350;5.578;2024-03-08T02:25:47;4.80;;;4.22;;
43891;SDS011;29555;45.350;5.578;2024-03-08T02:28:13;10.90;;;4.00;;
43891;SDS011;29555;45.350;5.578;2024-03-08T02:30:39;7.85;;;4.03;;
43891;SDS011;29555;45.350;5.578;2024-03-08T02:33:05;5.57;;;3.67;;
43891;SDS011;29555;45.350;5.578;2024-03-08T02:35:31;5.45;;;3.97;;
43891;SDS011;29555;45.350;5.578;2024-03-08T02:37:57;7.72;;;4.85;;
43891;SDS011;29555;45.350;5.578;2024-03-08T02:40:23;5.15;;;3.45;;
43891;SDS011;29555;45.350;5.578;2024-03-08T02:42:48;8.07;;;4.22;;
43891;SDS011;29555;45.350;5.578;2024-03-08T02:45:14;7.93;;;5.00;;
43891;SDS011;29555;45.350;5.578;2024-03-08T02:47:39;6.53;;;3.85;;
43891;SDS011;29555;45.350;5.578;2024-03-08T02:50:05;10.07;;;4.82;;
43891;SDS011;29555;45.350;5.578;2024-03-08T02:52:33;4.68;;;3.30;;
43891;SDS011;29555;45.350;5.578;2024-03-08T02:54:59;6.25;;;4.35;;
43891;SDS011;29555;45.350;5.578;2024-03-08T02:57:24;10.88;;;4.75;;
43891;SDS011;29555;45.350;5.578;2024-03-08T02:59:49;6.63;;;3.92;;
43891;SDS011;29555;45.350;5.578;2024-03-08T03:02:15;7.85;;;4.85;;
43891;SDS011;29555;45.350;5.578;2024-03-08T03:04:41;10.63;;;5.70;;
43891;SDS011;29555;45.350;5.578;2024-03-08T03:07:08;9.10;;;4.97;;
43891;SDS011;29555;45.350;5.578;2024-03-08T03:09:33;7.32;;;4.75;;
43891;SDS011;29555;45.350;5.578;2024-03-08T03:11:58;9.77;;;5.90;;
43891;SDS011;29555;45.350;5.578;2024-03-08T03:14:24;6.95;;;5.03;;
43891;SDS011;29555;45.350;5.578;2024-03-08T03:16:51;7.38;;;4.95;;
43891;SDS011;29555;45.350;5.578;2024-03-08T03:19:17;13.20;;;5.43;;
43891;SDS011;29555;45.350;5.578;2024-03-08T03:21:42;8.20;;;4.97;;
43891;SDS011;29555;45.350;5.578;2024-03-08T03:24:08;10.55;;;5.35;;
43891;SDS011;29555;45.350;5.578;2024-03-08T03:26:37;7.50;;;4.47;;
43891;SDS011;29555;45.350;5.578;2024-03-08T03:29:06;12.82;;;4.85;;
43891;SDS011;29555;45.350;5.578;2024-03-08T03:31:33;8.10;;;4.20;;
43891;SDS011;29555;45.350;5.578;2024-03-08T03:33:59;8.27;;;5.82;;
43891;SDS011;29555;45.350;5.578;2024-03-08T03:36:28;11.45;;;5.55;;
43891;SDS011;29555;45.350;5.578;2024-03-08T03:38:54;6.07;;;4.75;;
43891;SDS011;29555;45.350;5.578;2024-03-08T03:41:30;9.52;;;4.35;;
43891;SDS011;29555;45.350;5.578;2024-03-08T03:43:55;6.75;;;4.50;;
43891;SDS011;29555;45.350;5.578;2024-03-08T03:46:21;7.40;;;5.38;;
43891;SDS011;29555;45.350;5.578;2024-03-08T03:48:46;7.22;;;5.07;;
43891;SDS011;29555;45.350;5.578;2024-03-08T03:51:12;7.22;;;5.75;;
43891;SDS011;29555;45.350;5.578;2024-03-08T03:53:37;9.48;;;5.72;;
43891;SDS011;29555;45.350;5.578;2024-03-08T03:56:03;7.72;;;4.97;;
43891;SDS011;29555;45.350;5.578;2024-03-08T03:58:31;8.15;;;4.95;;
43891;SDS011;29555;45.350;5.578;2024-03-08T04:00:57;9.60;;;5.63;;
43891;SDS011;29555;45.350;5.578;2024-03-08T04:03:23;10.65;;;4.57;;
43891;SDS011;29555;45.350;5.578;2024-03-08T04:05:48;9.65;;;6.15;;
43891;SDS011;29555;45.350;5.578;2024-03-08T04:08:14;8.55;;;5.95;;
43891;SDS011;29555;45.350;5.578;2024-03-08T04:10:39;13.70;;;6.75;;
43891;SDS011;29555;45.350;5.578;2024-03-08T04:13:07;12.88;;;6.20;;
43891;SDS011;29555;45.350;5.578;2024-03-08T04:15:32;10.25;;;6.43;;
43891;SDS011;29555;45.350;5.578;2024-03-08T04:17:58;10.30;;;5.70;;
43891;SDS011;29555;45.350;5.578;2024-03-08T04:20:25;11.85;;;5.55;;
43891;SDS011;29555;45.350;5.578;2024-03-08T04:22:51;10.57;;;5.22;;
43891;SDS011;29555;45.350;5.578;2024-03-08T04:25:16;7.88;;;5.53;;
43891;SDS011;29555;45.350;5.578;2024-03-08T04:27:41;12.63;;;4.95;;
43891;SDS011;29555;45.350;5.578;2024-03-08T04:30:07;8.63;;;5.15;;
43891;SDS011;29555;45.350;5.578;2024-03-08T04:32:33;10.88;;;5.55;;
43891;SDS011;29555;45.350;5.578;2024-03-08T04:34:59;11.40;;;6.35;;
43891;SDS011;29555;45.350;5.578;2024-03-08T04:37:26;10.63;;;5.45;;
43891;SDS011;29555;45.350;5.578;2024-03-08T04:39:51;16.77;;;9.85;;
43891;SDS011;29555;45.350;5.578;2024-03-08T04:42:17;52.00;;;24.90;;
43891;SDS011;29555;45.350;5.578;2024-03-08T04:44:43;70.28;;;30.13;;
43891;SDS011;29555;45.350;5.578;2024-03-08T04:47:08;110.20;;;42.60;;
43891;SDS011;29555;45.350;5.578;2024-03-08T04:49:35;206.13;;;77.57;;
43891;SDS011;29555;45.350;5.578;2024-03-08T04:52:01;207.65;;;87.70;;
43891;SDS011;29555;45.350;5.578;2024-03-08T04:54:28;87.32;;;36.30;;
43891;SDS011;29555;45.350;5.578;2024-03-08T04:56:53;90.38;;;37.97;;
43891;SDS011;29555;45.350;5.578;2024-03-08T04:59:18;54.53;;;26.17;;
43891;SDS011;29555;45.350;5.578;2024-03-08T05:01:44;44.40;;;23.08;;
43891;SDS011;29555;45.350;5.578;2024-03-08T05:04:09;37.08;;;20.15;;
43891;SDS011;29555;45.350;5.578;2024-03-08T05:06:35;19.35;;;10.35;;
43891;SDS011;29555;45.350;5.578;2024-03-08T05:09:01;18.02;;;9.80;;
43891;SDS011;29555;45.350;5.578;2024-03-08T05:11:47;18.15;;;11.43;;
43891;SDS011;29555;45.350;5.578;2024-03-08T05:14:13;17.60;;;11.07;;
43891;SDS011;29555;45.350;5.578;2024-03-08T05:16:45;17.50;;;10.50;;
43891;SDS011;29555;45.350;5.578;2024-03-08T05:19:15;10.25;;;6.50;;
43891;SDS011;29555;45.350;5.578;2024-03-08T05:21:42;21.73;;;11.73;;
43891;SDS011;29555;45.350;5.578;2024-03-08T05:24:11;29.40;;;13.07;;
43891;SDS011;29555;45.350;5.578;2024-03-08T05:26:36;43.50;;;18.92;;
43891;SDS011;29555;45.350;5.578;2024-03-08T05:29:05;72.60;;;29.23;;
43891;SDS011;29555;45.350;5.578;2024-03-08T05:31:36;36.60;;;18.40;;
43891;SDS011;29555;45.350;5.578;2024-03-08T05:34:24;16.55;;;9.05;;
43891;SDS011;29555;45.350;5.578;2024-03-08T05:36:51;31.90;;;16.77;;
43891;SDS011;29555;45.350;5.578;2024-03-08T05:39:17;34.17;;;17.85;;
43891;SDS011;29555;45.350;5.578;2024-03-08T05:41:43;32.35;;;16.80;;
43891;SDS011;29555;45.350;5.578;2024-03-08T05:44:09;33.83;;;19.20;;
43891;SDS011;29555;45.350;5.578;2024-03-08T05:46:35;21.17;;;13.30;;
43891;SDS011;29555;45.350;5.578;2024-03-08T05:49:01;40.47;;;19.45;;
43891;SDS011;29555;45.350;5.578;2024-03-08T05:51:30;29.80;;;15.10;;
43891;SDS011;29555;45.350;5.578;2024-03-08T05:54:00;57.35;;;25.88;;
43891;SDS011;29555;45.350;5.578;2024-03-08T05:56:29;28.98;;;17.88;;
43891;SDS011;29555;45.350;5.578;2024-03-08T05:58:55;23.52;;;12.55;;
43891;SDS011;29555;45.350;5.578;2024-03-08T06:01:21;14.73;;;7.65;;
43891;SDS011;29555;45.350;5.578;2024-03-08T06:03:47;15.60;;;10.00;;
43891;SDS011;29555;45.350;5.578;2024-03-08T06:06:14;16.10;;;8.60;;
43891;SDS011;29555;45.350;5.578;2024-03-08T06:08:40;23.00;;;11.90;;
43891;SDS011;29555;45.350;5.578;2024-03-08T06:11:08;16.23;;;9.02;;
43891;SDS011;29555;45.350;5.578;2024-03-08T06:13:33;12.75;;;8.07;;
43891;SDS011;29555;45.350;5.578;2024-03-08T06:15:59;15.77;;;8.15;;
43891;SDS011;29555;45.350;5.578;2024-03-08T06:18:26;14.98;;;8.65;;
43891;SDS011;29555;45.350;5.578;2024-03-08T06:20:51;15.02;;;7.95;;
43891;SDS011;29555;45.350;5.578;2024-03-08T06:23:17;13.15;;;8.10;;
43891;SDS011;29555;45.350;5.578;2024-03-08T06:25:43;11.07;;;6.90;;
43891;SDS011;29555;45.350;5.578;2024-03-08T06:28:09;11.98;;;5.68;;
43891;SDS011;29555;45.350;5.578;2024-03-08T06:30:35;8.60;;;5.75;;
43891;SDS011;29555;45.350;5.578;2024-03-08T06:33:00;9.30;;;5.10;;
43891;SDS011;29555;45.350;5.578;2024-03-08T06:35:26;7.43;;;4.65;;
43891;SDS011;29555;45.350;5.578;2024-03-08T06:37:51;6.50;;;4.72;;
43891;SDS011;29555;45.350;5.578;2024-03-08T06:40:16;6.35;;;4.30;;
43891;SDS011;29555;45.350;5.578;2024-03-08T06:42:42;5.47;;;3.95;;
43891;SDS011;29555;45.350;5.578;2024-03-08T06:45:08;8.60;;;5.18;;
43891;SDS011;29555;45.350;5.578;2024-03-08T06:47:35;8.73;;;4.65;;
43891;SDS011;29555;45.350;5.578;2024-03-08T06:50:00;6.78;;;4.15;;
43891;SDS011;29555;45.350;5.578;2024-03-08T06:52:26;10.50;;;5.60;;
43891;SDS011;29555;45.350;5.578;2024-03-08T06:54:51;8.27;;;4.38;;
43891;SDS011;29555;45.350;5.578;2024-03-08T06:57:17;11.75;;;4.70;;
43891;SDS011;29555;45.350;5.578;2024-03-08T06:59:43;5.72;;;4.80;;
43891;SDS011;29555;45.350;5.578;2024-03-08T07:02:09;6.53;;;4.43;;
43891;SDS011;29555;45.350;5.578;2024-03-08T07:04:35;8.52;;;5.68;;
43891;SDS011;29555;45.350;5.578;2024-03-08T07:07:06;5.68;;;4.28;;
43891;SDS011;29555;45.350;5.578;2024-03-08T07:09:35;5.90;;;3.57;;
43891;SDS011;29555;45.350;5.578;2024-03-08T07:12:01;7.70;;;5.38;;
43891;SDS011;29555;45.350;5.578;2024-03-08T07:14:26;7.90;;;5.10;;
43891;SDS011;29555;45.350;5.578;2024-03-08T07:16:52;9.27;;;4.95;;
43891;SDS011;29555;45.350;5.578;2024-03-08T07:19:17;9.27;;;5.57;;
43891;SDS011;29555;45.350;5.578;2024-03-08T07:21:44;7.63;;;4.57;;
43891;SDS011;29555;45.350;5.578;2024-03-08T07:24:10;11.38;;;6.50;;
43891;SDS011;29555;45.350;5.578;2024-03-08T07:26:53;9.00;;;5.88;;
43891;SDS011;29555;45.350;5.578;2024-03-08T07:29:20;14.02;;;5.50;;
43891;SDS011;29555;45.350;5.578;2024-03-08T07:31:46;9.10;;;6.30;;
43891;SDS011;29555;45.350;5.578;2024-03-08T07:34:30;9.82;;;5.47;;
43891;SDS011;29555;45.350;5.578;2024-03-08T07:36:57;10.10;;;5.95;;
43891;SDS011;29555;45.350;5.578;2024-03-08T07:39:23;10.07;;;5.85;;
43891;SDS011;29555;45.350;5.578;2024-03-08T07:41:48;13.20;;;8.23;;
43891;SDS011;29555;45.350;5.578;2024-03-08T07:44:14;15.43;;;7.45;;
43891;SDS011;29555;45.350;5.578;2024-03-08T07:46:40;7.60;;;6.13;;
43891;SDS011;29555;45.350;5.578;2024-03-08T07:49:06;13.98;;;7.88;;
43891;SDS011;29555;45.350;5.578;2024-03-08T07:51:35;8.70;;;6.22;;
43891;SDS011;29555;45.350;5.578;2024-03-08T07:54:00;14.60;;;9.10;;
43891;SDS011;29555;45.350;5.578;2024-03-08T07:56:26;9.00;;;6.32;;
43891;SDS011;29555;45.350;5.578;2024-03-08T07:58:51;13.00;;;8.40;;
43891;SDS011;29555;45.350;5.578;2024-03-08T08:01:18;10.20;;;7.55;;
43891;SDS011;29555;45.350;5.578;2024-03-08T08:03:44;17.50;;;7.47;;
43891;SDS011;29555;45.350;5.578;2024-03-08T08:06:09;13.13;;;7.93;;
43891;SDS011;29555;45.350;5.578;2024-03-08T08:08:40;19.15;;;10.38;;
43891;SDS011;29555;45.350;5.578;2024-03-08T08:11:06;12.07;;;7.72;;
43891;SDS011;29555;45.350;5.578;2024-03-08T08:13:34;27.90;;;12.38;;
43891;SDS011;29555;45.350;5.578;2024-03-08T08:16:01;24.63;;;11.65;;
43891;SDS011;29555;45.350;5.578;2024-03-08T08:18:27;28.98;;;15.38;;
43891;SDS011;29555;45.350;5.578;2024-03-08T08:20:54;45.95;;;21.42;;
43891;SDS011;29555;45.350;5.578;2024-03-08T08:23:20;45.35;;;20.05;;
43891;SDS011;29555;45.350;5.578;2024-03-08T08:25:46;21.27;;;12.88;;
43891;SDS011;29555;45.350;5.578;2024-03-08T08:28:15;21.60;;;11.45;;
43891;SDS011;29555;45.350;5.578;2024-03-08T08:30:42;17.75;;;11.20;;
43891;SDS011;29555;45.350;5.578;2024-03-08T08:33:08;19.95;;;10.50;;
43891;SDS011;29555;45.350;5.578;2024-03-08T08:35:34;15.02;;;10.38;;
43891;SDS011;29555;45.350;5.578;2024-03-08T08:37:59;15.95;;;10.23;;
43891;SDS011;29555;45.350;5.578;2024-03-08T08:40:25;16.23;;;9.45;;
43891;SDS011;29555;45.350;5.578;2024-03-08T08:42:50;17.95;;;10.52;;
43891;SDS011;29555;45.350;5.578;2024-03-08T08:45:18;14.57;;;8.20;;
43891;SDS011;29555;45.350;5.578;2024-03-08T08:47:44;22.63;;;12.90;;
43891;SDS011;29555;45.350;5.578;2024-03-08T08:50:10;14.23;;;8.75;;
43891;SDS011;29555;45.350;5.578;2024-03-08T08:52:39;13.30;;;7.60;;
43891;SDS011;29555;45.350;5.578;2024-03-08T08:55:04;14.32;;;8.20;;
43891;SDS011;29555;45.350;5.578;2024-03-08T08:57:31;19.30;;;11.02;;
43891;SDS011;29555;45.350;5.578;2024-03-08T08:59:58;31.95;;;13.45;;
43891;SDS011;29555;45.350;5.578;2024-03-08T09:02:23;13.68;;;9.05;;
43891;SDS011;29555;45.350;5.578;2024-03-08T09:04:50;16.60;;;8.90;;
43891;SDS011;29555;45.350;5.578;2024-03-08T09:07:16;25.52;;;14.85;;
43891;SDS011;29555;45.350;5.578;2024-03-08T09:09:43;23.70;;;12.35;;
43891;SDS011;29555;45.350;5.578;2024-03-08T09:12:10;20.38;;;9.88;;
43891;SDS011;29555;45.350;5.578;2024-03-08T09:14:38;20.70;;;11.65;;
43891;SDS011;29555;45.350;5.578;2024-03-08T09:17:05;16.02;;;9.52;;
43891;SDS011;29555;45.350;5.578;2024-03-08T09:19:31;13.20;;;7.38;;
43891;SDS011;29555;45.350;5.578;2024-03-08T09:21:58;11.13;;;7.13;;
43891;SDS011;29555;45.350;5.578;2024-03-08T09:24:23;37.50;;;17.13;;
43891;SDS011;29555;45.350;5.578;2024-03-08T09:26:49;13.02;;;7.60;;
43891;SDS011;29555;45.350;5.578;2024-03-08T09:29:14;17.92;;;9.43;;
43891;SDS011;29555;45.350;5.578;2024-03-08T09:31:40;13.25;;;6.88;;
43891;SDS011;29555;45.350;5.578;2024-03-08T09:34:05;19.85;;;10.77;;
43891;SDS011;29555;45.350;5.578;2024-03-08T09:36:33;23.73;;;11.95;;
43891;SDS011;29555;45.350;5.578;2024-03-08T09:38:59;10.80;;;7.72;;
43891;SDS011;29555;45.350;5.578;2024-03-08T09:41:25;17.75;;;9.60;;
43891;SDS011;29555;45.350;5.578;2024-03-08T09:43:51;16.70;;;9.45;;
43891;SDS011;29555;45.350;5.578;2024-03-08T09:46:16;13.05;;;7.20;;
43891;SDS011;29555;45.350;5.578;2024-03-08T09:48:44;17.52;;;8.93;;
43891;SDS011;29555;45.350;5.578;2024-03-08T09:51:11;19.75;;;9.13;;
43891;SDS011;29555;45.350;5.578;2024-03-08T09:53:40;18.52;;;8.75;;
43891;SDS011;29555;45.350;5.578;2024-03-08T09:56:07;12.40;;;7.53;;
43891;SDS011;29555;45.350;5.578;2024-03-08T09:58:33;7.05;;;4.97;;
43891;SDS011;29555;45.350;5.578;2024-03-08T10:00:58;9.65;;;6.50;;
43891;SDS011;29555;45.350;5.578;2024-03-08T10:03:27;7.72;;;5.88;;
43891;SDS011;29555;45.350;5.578;2024-03-08T10:05:53;20.50;;;10.07;;
43891;SDS011;29555;45.350;5.578;2024-03-08T10:08:23;10.85;;;6.72;;
43891;SDS011;29555;45.350;5.578;2024-03-08T10:10:50;10.77;;;8.13;;
43891;SDS011;29555;45.350;5.578;2024-03-08T10:13:16;12.10;;;6.40;;
43891;SDS011;29555;45.350;5.578;2024-03-08T10:15:44;8.90;;;6.68;;
43891;SDS011;29555;45.350;5.578;2024-03-08T10:18:10;12.60;;;6.68;;
43891;SDS011;29555;45.350;5.578;2024-03-08T10:20:35;11.95;;;6.53;;
43891;SDS011;29555;45.350;5.578;2024-03-08T10:23:04;7.72;;;5.40;;
43891;SDS011;29555;45.350;5.578;2024-03-08T10:25:30;17.63;;;6.53;;
43891;SDS011;29555;45.350;5.578;2024-03-08T10:27:59;15.70;;;6.93;;
43891;SDS011;29555;45.350;5.578;2024-03-08T10:30:29;12.18;;;6.97;;
43891;SDS011;29555;45.350;5.578;2024-03-08T10:32:54;13.18;;;6.97;;
43891;SDS011;29555;45.350;5.578;2024-03-08T10:35:20;7.07;;;5.57;;
43891;SDS011;29555;45.350;5.578;2024-03-08T10:37:46;10.57;;;4.47;;
43891;SDS011;29555;45.350;5.578;2024-03-08T10:40:23;14.68;;;6.70;;
43891;SDS011;29555;45.350;5.578;2024-03-08T10:42:57;7.50;;;5.03;;
43891;SDS011;29555;45.350;5.578;2024-03-08T10:45:36;8.32;;;5.68;;
43891;SDS011;29555;45.350;5.578;2024-03-08T10:50:57;9.23;;;5.95;;
43891;SDS011;29555;45.350;5.578;2024-03-08T10:53:22;10.82;;;7.00;;
43891;SDS011;29555;45.350;5.578;2024-03-08T10:55:49;11.82;;;7.65;;
43891;SDS011;29555;45.350;5.578;2024-03-08T10:58:18;13.27;;;6.85;;
43891;SDS011;29555;45.350;5.578;2024-03-08T11:00:48;11.45;;;6.50;;
43891;SDS011;29555;45.350;5.578;2024-03-08T11:06:06;13.55;;;7.32;;
43891;SDS011;29555;45.350;5.578;2024-03-08T11:08:33;9.70;;;6.90;;
43891;SDS011;29555;45.350;5.578;2024-03-08T11:11:01;13.75;;;7.07;;
43891;SDS011;29555;45.350;5.578;2024-03-08T11:13:36;57.10;;;24.10;;
43891;SDS011;29555;45.350;5.578;2024-03-08T11:16:12;30.63;;;11.25;;
43891;SDS011;29555;45.350;5.578;2024-03-08T11:18:58;24.13;;;11.03;;
43891;SDS011;29555;45.350;5.578;2024-03-08T11:21:35;43.67;;;17.73;;
43891;SDS011;29555;45.350;5.578;2024-03-08T11:24:14;59.30;;;21.75;;
43891;SDS011;29555;45.350;5.578;2024-03-08T11:26:41;51.28;;;22.15;;
43891;SDS011;29555;45.350;5.578;2024-03-08T11:32:14;14.10;;;8.50;;
43891;SDS011;29555;45.350;5.578;2024-03-08T11:34:46;39.13;;;18.83;;
43891;SDS011;29555;45.350;5.578;2024-03-08T11:37:17;49.47;;;20.33;;
43891;SDS011;29555;45.350;5.578;2024-03-08T11:39:46;22.52;;;13.43;;
43891;SDS011;29555;45.350;5.578;2024-03-08T11:42:13;18.02;;;6.55;;
43891;SDS011;29555;45.350;5.578;2024-03-08T11:44:39;20.08;;;11.25;;
43891;SDS011;29555;45.350;5.578;2024-03-08T11:47:08;20.95;;;11.57;;
43891;SDS011;29555;45.350;5.578;2024-03-08T11:49:35;22.13;;;10.30;;
43891;SDS011;29555;45.350;5.578;2024-03-08T11:52:01;18.50;;;10.63;;
43891;SDS011;29555;45.350;5.578;2024-03-08T11:54:27;10.43;;;5.50;;
43891;SDS011;29555;45.350;5.578;2024-03-08T11:56:54;13.23;;;8.25;;
43891;SDS011;29555;45.350;5.578;2024-03-08T11:59:25;31.92;;;15.57;;
43891;SDS011;29555;45.350;5.578;2024-03-08T12:02:04;13.85;;;8.32;;
43891;SDS011;29555;45.350;5.578;2024-03-08T12:04:31;18.63;;;10.32;;
43891;SDS011;29555;45.350;5.578;2024-03-08T12:06:59;13.02;;;7.38;;
43891;SDS011;29555;45.350;5.578;2024-03-08T12:09:34;9.38;;;6.05;;
43891;SDS011;29555;45.350;5.578;2024-03-08T12:12:01;13.40;;;8.43;;
43891;SDS011;29555;45.350;5.578;2024-03-08T12:14:29;20.55;;;7.38;;
43891;SDS011;29555;45.350;5.578;2024-03-08T12:16:55;18.15;;;5.82;;
43891;SDS011;29555;45.350;5.578;2024-03-08T12:19:20;12.63;;;6.47;;
43891;SDS011;29555;45.350;5.578;2024-03-08T12:21:46;21.17;;;9.57;;
43891;SDS011;29555;45.350;5.578;2024-03-08T12:24:18;7.20;;;5.85;;
43891;SDS011;29555;45.350;5.578;2024-03-08T12:26:46;10.80;;;7.25;;
43891;SDS011;29555;45.350;5.578;2024-03-08T12:29:25;6.85;;;6.03;;
43891;SDS011;29555;45.350;5.578;2024-03-08T12:31:54;11.38;;;7.15;;
43891;SDS011;29555;45.350;5.578;2024-03-08T12:34:20;15.73;;;9.80;;
43891;SDS011;29555;45.350;5.578;2024-03-08T12:36:46;11.55;;;7.03;;
43891;SDS011;29555;45.350;5.578;2024-03-08T12:39:19;8.77;;;5.43;;
43891;SDS011;29555;45.350;5.578;2024-03-08T12:44:17;8.98;;;5.10;;
43891;SDS011;29555;45.350;5.578;2024-03-08T12:46:44;6.88;;;4.57;;
43891;SDS011;29555;45.350;5.578;2024-03-08T12:49:10;7.13;;;4.00;;
43891;SDS011;29555;45.350;5.578;2024-03-08T12:51:37;10.80;;;4.47;;
43891;SDS011;29555;45.350;5.578;2024-03-08T12:54:04;9.30;;;6.70;;
43891;SDS011;29555;45.350;5.578;2024-03-08T12:56:32;14.27;;;5.60;;
43891;SDS011;29555;45.350;5.578;2024-03-08T12:58:59;14.93;;;7.00;;
43891;SDS011;29555;45.350;5.578;2024-03-08T13:01:25;10.65;;;6.53;;
43891;SDS011;29555;45.350;5.578;2024-03-08T13:03:52;11.07;;;7.20;;
43891;SDS011;29555;45.350;5.578;2024-03-08T13:06:17;8.05;;;5.60;;
43891;SDS011;29555;45.350;5.578;2024-03-08T13:08:44;7.28;;;5.30;;
43891;SDS011;29555;45.350;5.578;2024-03-08T13:11:10;9.63;;;6.50;;
43891;SDS011;29555;45.350;5.578;2024-03-08T13:13:42;10.35;;;6.68;;
43891;SDS011;29555;45.350;5.578;2024-03-08T13:16:09;9.73;;;5.75;;
43891;SDS011;29555;45.350;5.578;2024-03-08T13:18:35;7.85;;;6.05;;
43891;SDS011;29555;45.350;5.578;2024-03-08T13:21:01;11.18;;;6.75;;
43891;SDS011;29555;45.350;5.578;2024-03-08T13:23:36;10.45;;;4.60;;
43891;SDS011;29555;45.350;5.578;2024-03-08T13:26:05;10.20;;;6.82;;
43891;SDS011;29555;45.350;5.578;2024-03-08T13:28:31;7.40;;;5.72;;
43891;SDS011;29555;45.350;5.578;2024-03-08T13:31:01;11.75;;;5.85;;
43891;SDS011;29555;45.350;5.578;2024-03-08T13:33:28;9.45;;;5.18;;
43891;SDS011;29555;45.350;5.578;2024-03-08T13:35:53;15.70;;;8.13;;
43891;SDS011;29555;45.350;5.578;2024-03-08T13:38:18;12.13;;;6.32;;
43891;SDS011;29555;45.350;5.578;2024-03-08T13:40:45;11.68;;;5.97;;
43891;SDS011;29555;45.350;5.578;2024-03-08T13:43:11;27.85;;;11.40;;
43891;SDS011;29555;45.350;5.578;2024-03-08T13:45:37;54.70;;;22.23;;
43891;SDS011;29555;45.350;5.578;2024-03-08T13:48:03;51.35;;;21.05;;
43891;SDS011;29555;45.350;5.578;2024-03-08T13:50:37;182.68;;;53.67;;
43891;SDS011;29555;45.350;5.578;2024-03-08T13:53:03;143.98;;;51.97;;
43891;SDS011;29555;45.350;5.578;2024-03-08T13:55:29;59.03;;;23.17;;
43891;SDS011;29555;45.350;5.578;2024-03-08T13:57:55;37.40;;;15.70;;
43891;SDS011;29555;45.350;5.578;2024-03-08T14:00:22;90.20;;;32.22;;
43891;SDS011;29555;45.350;5.578;2024-03-08T14:02:49;78.65;;;30.33;;
43891;SDS011;29555;45.350;5.578;2024-03-08T14:05:15;37.97;;;17.42;;
43891;SDS011;29555;45.350;5.578;2024-03-08T14:07:41;45.15;;;21.75;;
43891;SDS011;29555;45.350;5.578;2024-03-08T14:10:07;72.60;;;29.52;;
43891;SDS011;29555;45.350;5.578;2024-03-08T14:12:34;16.88;;;11.45;;
43891;SDS011;29555;45.350;5.578;2024-03-08T14:15:00;14.07;;;6.57;;
43891;SDS011;29555;45.350;5.578;2024-03-08T14:17:26;13.73;;;7.90;;
43891;SDS011;29555;45.350;5.578;2024-03-08T14:19:52;17.02;;;9.65;;
43891;SDS011;29555;45.350;5.578;2024-03-08T14:22:18;30.20;;;15.35;;
43891;SDS011;29555;45.350;5.578;2024-03-08T14:24:43;9.63;;;7.00;;
43891;SDS011;29555;45.350;5.578;2024-03-08T14:27:09;16.95;;;5.75;;
43891;SDS011;29555;45.350;5.578;2024-03-08T14:29:37;7.20;;;3.72;;
43891;SDS011;29555;45.350;5.578;2024-03-08T14:32:03;11.27;;;5.78;;
43891;SDS011;29555;45.350;5.578;2024-03-08T14:34:31;12.50;;;8.77;;
43891;SDS011;29555;45.350;5.578;2024-03-08T14:36:58;5.18;;;3.67;;
43891;SDS011;29555;45.350;5.578;2024-03-08T14:39:25;2.83;;;2.22;;
43891;SDS011;29555;45.350;5.578;2024-03-08T14:41:54;5.22;;;2.83;;
43891;SDS011;29555;45.350;5.578;2024-03-08T14:44:21;4.65;;;2.30;;
43891;SDS011;29555;45.350;5.578;2024-03-08T14:46:51;2.22;;;2.03;;